Time;durP1;ratioP1;P1;durP2;ratioP2;P2;SDS_P1;SDS_P2;PMS_P1;PMS_P2;Temp;Humidity;BMP_temperature;BMP_pressure;BME280_temperature;BME280_humidity;BME280_pressure;Samples;Min_cycle;Max_cycle;Signal;HPM_P1;HPM_P2
2024/01/20 00:01:09;;;;;;;22.88;15.90;;;;;;;-0.82;76.30;101307.22;10445127;28;20729;-64
2024/01/20 00:06:10;;;;;;;19.42;15.82;;;;;;;-0.89;77.44;101314.28;10448456;28;20057;-62
2024/01/20 00:11:13;;;;;;;21.10;15.82;;;;;;;-0.82;76.58;101310.69;10430647;28;20068;-62
2024/01/20 00:16:15;;;;;;;24.00;16.23;;;;;;;-0.83;77.30;101315.94;10417224;28;20575;-61
2024/01/20 00:21:17;;;;;;;22.40;17.08;;;;;;;-0.76;76.48;101320.19;10416762;28;20509;-61
2024/01/20 00:26:21;;;;;;;22.23;16.17;;;;;;;-0.87;76.68;101316.88;10442183;28;20053;-62
2024/01/20 00:31:24;;;;;;;22.50;17.00;;;;;;;-0.91;76.69;101316.06;10423977;28;20056;-62
2024/01/20 00:36:25;;;;;;;20.98;15.57;;;;;;;-0.81;76.28;101335.06;10444728;28;20135;-62
2024/01/20 00:41:26;;;;;;;19.45;14.65;;;;;;;-0.92;76.03;101341.34;10443668;28;20060;-62
2024/01/20 00:46:28;;;;;;;22.42;15.23;;;;;;;-0.83;76.53;101335.09;10440251;28;20048;-62
2024/01/20 00:51:30;;;;;;;18.92;14.77;;;;;;;-0.76;75.66;101335.88;10445808;28;22276;-62
2024/01/20 00:56:32;;;;;;;18.60;15.07;;;;;;;-0.85;75.74;101336.88;10440426;28;20056;-62
2024/01/20 01:01:34;;;;;;;18.60;15.07;;;;;;;-0.84;75.40;101327.28;10443903;28;20052;-64
2024/01/20 01:06:36;;;;;;;21.60;16.92;;;;;;;-0.83;75.86;101345.56;10438585;28;20154;-62
2024/01/20 01:11:39;;;;;;;19.42;15.75;;;;;;;-1.02;76.14;101351.97;10426067;28;20094;-61
2024/01/20 01:16:41;;;;;;;20.30;15.80;;;;;;;-1.18;75.98;101344.34;10436234;28;20131;-63
2024/01/20 01:21:42;;;;;;;24.00;17.27;;;;;;;-1.10;76.00;101360.78;10441309;28;20052;-62
2024/01/20 01:26:44;;;;;;;19.98;15.32;;;;;;;-1.11;76.37;101361.69;10438649;28;20048;-60
2024/01/20 01:31:45;;;;;;;22.73;17.05;;;;;;;-1.17;76.22;101366.09;10442507;28;20055;-62
2024/01/20 01:36:47;;;;;;;23.77;17.17;;;;;;;-1.16;76.69;101370.47;10427084;28;20647;-60
2024/01/20 01:41:50;;;;;;;22.73;16.05;;;;;;;-1.14;75.95;101372.19;10419827;28;20108;-62
2024/01/20 01:46:53;;;;;;;20.33;15.75;;;;;;;-1.10;75.71;101373.84;10428036;28;20056;-60
2024/01/20 01:51:55;;;;;;;20.58;15.10;;;;;;;-1.04;76.59;101377.25;10423164;28;20557;-62
2024/01/20 01:56:59;;;;;;;23.33;17.75;;;;;;;-0.94;76.17;101371.03;10421971;28;20069;-62
2024/01/20 02:02:01;;;;;;;25.33;19.03;;;;;;;-0.94;76.22;101374.50;10429874;28;20063;-62
2024/01/20 02:07:03;;;;;;;23.02;17.80;;;;;;;-0.93;74.83;101385.78;10435262;28;20299;-61
2024/01/20 02:12:06;;;;;;;22.65;16.42;;;;;;;-0.98;75.97;101382.41;10411993;28;20200;-63
2024/01/20 02:17:07;;;;;;;21.75;16.75;;;;;;;-0.93;75.74;101386.69;10435172;28;20048;-62
2024/01/20 02:22:13;;;;;;;24.02;17.92;;;;;;;-0.98;76.15;101398.94;10412695;28;20619;-62
2024/01/20 02:27:17;;;;;;;20.45;15.93;;;;;;;-0.94;76.09;101400.63;10434702;28;20135;-63
2024/01/20 02:32:18;;;;;;;21.15;16.65;;;;;;;-0.88;74.96;101404.91;10412709;28;20055;-63
2024/01/20 02:37:20;;;;;;;20.70;17.35;;;;;;;-1.21;74.94;101383.59;10440435;28;20049;-63
2024/01/20 02:42:22;;;;;;;20.40;16.27;;;;;;;-1.18;74.77;101401.84;10438027;28;20091;-62
2024/01/20 02:47:23;;;;;;;20.67;15.60;;;;;;;-1.52;74.71;101391.81;10428466;28;20261;-63
2024/01/20 02:52:25;;;;;;;22.92;16.40;;;;;;;-1.52;74.71;101415.31;10382011;28;20093;-62
2024/01/20 02:57:27;;;;;;;23.55;17.20;;;;;;;-1.68;74.05;101408.53;10427177;28;20090;-62
2024/01/20 03:02:28;;;;;;;21.10;16.02;;;;;;;-1.67;74.21;101407.66;10437503;28;20269;-62
2024/01/20 03:07:30;;;;;;;23.52;17.25;;;;;;;-1.66;74.27;101404.19;10413644;28;20762;-62
2024/01/20 03:12:32;;;;;;;20.05;16.60;;;;;;;-1.61;74.26;101431.09;10425509;28;20126;-62
2024/01/20 03:17:35;;;;;;;23.55;16.67;;;;;;;-1.64;74.69;101418.06;10420868;28;20052;-62
2024/01/20 03:22:37;;;;;;;23.75;16.95;;;;;;;-1.67;74.69;101415.50;10418906;28;20052;-63
2024/01/20 03:27:38;;;;;;;22.45;16.70;;;;;;;-1.65;75.71;101426.78;10428457;28;20056;-62
2024/01/20 03:32:42;;;;;;;24.25;18.52;;;;;;;-1.71;75.14;101422.50;10434883;28;20622;-64
2024/01/20 03:37:44;;;;;;;25.83;17.13;;;;;;;-1.53;74.81;101431.00;10437435;28;20056;-62
2024/01/20 03:42:45;;;;;;;22.98;17.20;;;;;;;-1.42;74.60;101443.06;10433674;28;20352;-62
2024/01/20 03:47:47;;;;;;;25.08;18.80;;;;;;;-1.54;74.12;101429.28;10436123;28;20059;-63
2024/01/20 03:52:48;;;;;;;25.10;17.50;;;;;;;-1.61;74.75;101446.75;10433914;28;20665;-67
2024/01/20 03:57:50;;;;;;;27.80;19.52;;;;;;;-1.59;75.00;101447.63;10435120;28;20102;-63
2024/01/20 04:02:51;;;;;;;26.60;20.45;;;;;;;-1.45;75.55;101452.69;10410033;28;20118;-61
2024/01/20 04:07:53;;;;;;;28.90;19.42;;;;;;;-1.42;74.41;101450.88;10431738;28;20597;-62
2024/01/20 04:12:54;;;;;;;26.60;20.33;;;;;;;-1.58;74.61;101433.66;10436143;28;20063;-61
2024/01/20 04:17:56;;;;;;;25.75;18.80;;;;;;;-1.51;75.63;101461.44;10411579;28;20330;-62
2024/01/20 04:22:57;;;;;;;28.65;19.95;;;;;;;-1.29;75.10;101476.88;10430614;28;20055;-62
2024/01/20 04:28:00;;;;;;;25.15;18.75;;;;;;;-1.23;75.05;101475.94;10413021;28;21296;-62
2024/01/20 04:33:01;;;;;;;27.80;19.90;;;;;;;-1.26;75.21;101467.25;10439629;28;20052;-62
2024/01/20 04:38:04;;;;;;;28.42;20.60;;;;;;;-1.34;75.21;101470.84;10437527;28;20049;-62
2024/01/20 04:43:05;;;;;;;27.75;19.52;;;;;;;-1.43;76.44;101474.41;10440633;28;20056;-61
2024/01/20 04:48:07;;;;;;;29.92;19.88;;;;;;;-1.47;76.76;101473.59;10418719;28;20062;-62
2024/01/20 04:53:09;;;;;;;29.42;20.88;;;;;;;-1.61;76.04;101491.16;10419427;28;20052;-62
2024/01/20 04:58:10;;;;;;;31.65;22.00;;;;;;;-1.68;76.37;101489.47;10441800;28;20049;-63
2024/01/20 05:03:12;;;;;;;28.25;20.52;;;;;;;-1.67;77.00;101470.31;10425889;28;20059;-62
2024/01/20 05:08:13;;;;;;;30.73;20.00;;;;;;;-1.55;76.06;101488.47;10437877;28;20075;-64
2024/01/20 05:13:15;;;;;;;33.72;21.40;;;;;;;-1.62;76.73;101489.44;10424405;28;20048;-63
2024/01/20 05:18:16;;;;;;;28.10;19.33;;;;;;;-1.68;76.94;101484.25;10442702;28;20552;-61
2024/01/20 05:23:18;;;;;;;29.02;19.83;;;;;;;-1.54;75.13;101492.81;10443077;28;20044;-62
2024/01/20 05:28:22;;;;;;;26.38;18.55;;;;;;;-1.77;75.25;101485.22;10410719;28;20054;-69
2024/01/20 05:33:23;;;;;;;24.20;18.00;;;;;;;-2.07;77.19;101497.69;10400441;28;20075;-62
2024/01/20 05:38:25;;;;;;;24.27;18.08;;;;;;;-2.05;76.48;101511.56;10434634;28;20126;-63
2024/01/20 05:43:26;;;;;;;24.83;17.83;;;;;;;-1.83;77.02;101533.13;10413540;28;20055;-63
2024/01/20 05:48:30;;;;;;;24.38;17.88;;;;;;;-1.66;76.65;101537.34;10436379;28;20048;-62
2024/01/20 05:53:32;;;;;;;27.75;17.92;;;;;;;-1.70;77.51;101543.47;10418266;28;20052;-62
2024/01/20 05:58:33;;;;;;;27.73;18.75;;;;;;;-1.67;77.26;101533.84;10437492;28;20139;-64
2024/01/20 06:03:35;;;;;;;26.83;19.50;;;;;;;-1.66;77.09;101550.41;10436073;28;20067;-62
2024/01/20 06:08:36;;;;;;;30.17;19.63;;;;;;;-1.66;78.05;101545.19;10437276;28;20049;-61
2024/01/20 06:13:37;;;;;;;28.38;20.38;;;;;;;-1.94;78.79;101568.88;10434033;28;20858;-63
2024/01/20 06:18:39;;;;;;;29.27;18.40;;;;;;;-1.79;78.72;101576.63;10419819;28;20123;-61
2024/01/20 06:23:41;;;;;;;30.27;19.10;;;;;;;-1.99;79.19;101578.50;10428015;28;20048;-62
2024/01/20 06:28:45;;;;;;;27.63;18.80;;;;;;;-1.94;79.73;101586.31;10436213;28;20060;-62
2024/01/20 06:33:47;;;;;;;25.70;18.35;;;;;;;-1.93;78.85;101606.31;10420989;28;20060;-61
2024/01/20 06:38:49;;;;;;;24.10;17.17;;;;;;;-1.98;79.32;101595.91;10398600;28;20060;-65
2024/01/20 06:43:51;;;;;;;24.85;18.70;;;;;;;-1.92;78.52;101594.97;10400676;28;20048;-61
2024/01/20 06:48:53;;;;;;;24.75;17.75;;;;;;;-1.77;78.53;101605.31;10438741;28;20135;-61
2024/01/20 06:53:57;;;;;;;26.23;17.85;;;;;;;-1.78;78.02;101612.28;10437138;28;20178;-62
2024/01/20 06:58:59;;;;;;;25.17;17.10;;;;;;;-1.97;79.08;101618.50;10434844;28;20568;-62
2024/01/20 07:04:01;;;;;;;24.23;16.10;;;;;;;-1.96;80.21;101608.03;10430979;28;20053;-62
2024/01/20 07:09:05;;;;;;;27.88;19.17;;;;;;;-2.07;79.82;101617.72;10435387;28;20052;-62
2024/01/20 07:14:07;;;;;;;26.60;19.37;;;;;;;-2.03;78.70;101636.81;10408486;28;20132;-61
2024/01/20 07:19:08;;;;;;;25.75;17.38;;;;;;;-2.10;79.02;101637.72;10408988;28;20048;-61
2024/01/20 07:24:09;;;;;;;31.40;20.73;;;;;;;-2.16;78.74;101644.72;10436428;28;20053;-62
2024/01/20 07:29:11;;;;;;;32.30;20.88;;;;;;;-2.07;79.17;101640.31;10434665;28;20087;-62
2024/01/20 07:34:13;;;;;;;38.22;23.27;;;;;;;-2.04;79.83;101649.00;10434334;28;20146;-62
2024/01/20 07:39:14;;;;;;;35.70;22.02;;;;;;;-1.92;80.04;101653.28;10431908;28;20048;-63
2024/01/20 07:44:16;;;;;;;42.13;22.23;;;;;;;-2.14;81.07;101655.16;10405505;28;20996;-63
2024/01/20 07:49:17;;;;;;;38.22;23.08;;;;;;;-2.18;82.59;101656.91;10409353;28;20064;-63
2024/01/20 07:54:19;;;;;;;39.67;23.33;;;;;;;-2.14;81.63;101670.78;10428760;28;20045;-63
2024/01/20 07:59:21;;;;;;;35.03;21.45;;;;;;;-2.18;82.41;101684.72;10444490;28;20071;-63
2024/01/20 08:04:22;;;;;;;29.15;19.88;;;;;;;-2.06;81.87;101699.47;10427202;28;20687;-62
2024/01/20 08:09:24;;;;;;;31.05;19.45;;;;;;;-2.05;81.35;101714.25;10439429;28;20056;-62
2024/01/20 08:14:26;;;;;;;34.17;20.95;;;;;;;-2.09;81.11;101715.97;10435962;28;20522;-66
2024/01/20 08:19:28;;;;;;;33.97;20.27;;;;;;;-2.03;81.59;101715.09;10439220;28;20474;-62
2024/01/20 08:24:30;;;;;;;28.67;19.35;;;;;;;-1.99;81.72;101703.78;10442205;28;20063;-63
2024/01/20 08:29:32;;;;;;;29.02;19.52;;;;;;;-1.99;80.95;101714.22;10441690;28;20131;-63
2024/01/20 08:34:34;;;;;;;29.55;19.70;;;;;;;-1.81;80.59;101701.06;10444222;28;20484;-63
2024/01/20 08:39:35;;;;;;;30.83;18.90;;;;;;;-1.78;79.62;101715.84;10445830;28;20506;-63
2024/01/20 08:44:37;;;;;;;31.45;19.50;;;;;;;-1.73;79.01;101716.66;10440331;28;20052;-65
2024/01/20 08:49:38;;;;;;;28.75;18.08;;;;;;;-1.61;78.59;101723.56;10420002;28;20044;-62
2024/01/20 08:54:40;;;;;;;27.38;17.27;;;;;;;-1.60;76.82;101725.31;10440732;28;20071;-63
2024/01/20 08:59:42;;;;;;;89.53;64.50;;;;;;;-1.57;77.86;101716.59;10438552;28;20144;-64
2024/01/20 09:04:45;;;;;;;32.25;22.42;;;;;;;-1.44;76.91;101728.69;10437953;28;20044;-65
2024/01/20 09:09:47;;;;;;;33.03;24.98;;;;;;;-1.37;77.11;101729.50;10441321;28;20060;-61
2024/01/20 09:14:49;;;;;;;28.85;18.88;;;;;;;-1.40;77.54;101735.59;10422952;28;20052;-63
2024/01/20 09:19:50;;;;;;;28.75;21.73;;;;;;;-1.35;76.98;101727.72;10437561;28;20052;-63
2024/01/20 09:24:52;;;;;;;24.42;18.58;;;;;;;-1.15;76.87;101715.38;10419900;28;20048;-63
2024/01/20 09:29:54;;;;;;;24.00;17.70;;;;;;;-1.20;76.55;101727.63;10437086;28;20137;-64
2024/01/20 09:34:56;;;;;;;28.23;18.35;;;;;;;-1.33;76.62;101731.22;10433733;28;20231;-64
2024/01/20 09:39:57;;;;;;;25.23;18.92;;;;;;;-1.44;76.87;101716.47;10436727;28;20049;-63
2024/01/20 09:44:59;;;;;;;28.35;18.02;;;;;;;-1.28;76.59;101739.88;10432573;28;20047;-63
2024/01/20 09:50:04;;;;;;;28.52;18.40;;;;;;;-1.24;76.61;101752.03;10433109;28;20052;-64
2024/01/20 09:55:19;;;;;;;23.27;17.33;;;;;;;-1.12;76.73;101743.25;10429048;28;20040;-63
2024/01/20 10:00:23;;;;;;;26.65;19.27;;;;;;;-1.16;76.89;101742.38;10428319;28;20751;-64
2024/01/20 10:05:25;;;;;;;25.08;17.08;;;;;;;-1.03;76.49;101753.63;10401706;28;20079;-63
2024/01/20 10:10:27;;;;;;;27.83;18.70;;;;;;;-1.03;77.03;101751.00;10420596;28;20270;-63
2024/01/20 10:15:30;;;;;;;23.55;16.67;;;;;;;-0.91;75.74;101750.03;10430739;28;20045;-62
2024/01/20 10:20:36;;;;;;;26.73;17.90;;;;;;;-1.10;76.04;101755.41;10435786;28;20066;-63
2024/01/20 10:25:39;;;;;;;20.47;13.73;;;;;;;-1.09;75.90;101743.22;10416083;28;20079;-64
2024/01/20 10:30:41;;;;;;;24.52;18.48;;;;;;;-0.95;76.49;101737.88;10422219;28;20147;-63
2024/01/20 10:35:43;;;;;;;26.33;18.25;;;;;;;-1.15;75.09;101736.28;10434779;28;20053;-63
2024/01/20 10:40:51;;;;;;;25.77;18.52;;;;;;;-1.28;75.14;101708.53;10438542;28;20188;-63
2024/01/20 10:46:08;;;;;;;26.80;18.38;;;;;;;-0.96;75.84;101739.63;10414657;28;20049;-62
2024/01/20 10:51:14;;;;;;;26.50;19.33;;;;;;;-0.80;75.87;101742.09;10408081;28;20059;-62
2024/01/20 10:56:17;;;;;;;25.90;17.83;;;;;;;-0.58;74.55;101742.75;10434256;28;20053;-62
2024/01/20 11:01:20;;;;;;;25.67;17.98;;;;;;;-0.64;74.09;101748.06;10425390;28;20137;-63
2024/01/20 11:06:24;;;;;;;27.13;17.60;;;;;;;-0.57;74.10;101734.88;10431674;28;20135;-64
2024/01/20 11:11:28;;;;;;;26.02;17.55;;;;;;;-0.57;73.39;101745.34;10434604;28;20073;-62
2024/01/20 11:16:36;;;;;;;25.58;17.58;;;;;;;-0.43;73.23;101729.50;10418638;28;20051;-62
2024/01/20 11:21:38;;;;;;;23.77;17.13;;;;;;;-0.42;72.79;101723.41;10438103;28;20648;-62
2024/01/20 11:26:40;;;;;;;25.52;18.00;;;;;;;-0.45;72.57;101727.78;10435850;28;20056;-63
2024/01/20 11:31:46;;;;;;;24.45;16.95;;;;;;;-0.40;73.41;101716.38;10424034;28;20048;-63
2024/01/20 11:36:48;;;;;;;25.35;18.38;;;;;;;-0.32;72.46;101703.19;10382167;28;20523;-64
2024/01/20 11:42:04;;;;;;;25.92;18.50;;;;;;;-0.15;71.55;101723.97;10443416;28;20044;-64
2024/01/20 11:47:05;;;;;;;24.15;16.52;;;;;;;-0.48;71.76;101717.34;10445660;28;20052;-62
2024/01/20 11:52:09;;;;;;;24.67;17.50;;;;;;;-0.71;74.10;101721.06;10442650;28;20450;-64
2024/01/20 11:57:18;;;;;;;25.60;19.65;;;;;;;-0.72;73.49;101725.44;10428130;28;20522;-62
2024/01/20 12:02:20;;;;;;;25.63;18.25;;;;;;;-0.87;73.95;101712.53;10442607;28;20063;-61
2024/01/20 12:07:22;;;;;;;29.77;19.35;;;;;;;-0.74;72.90;101721.97;10441162;28;20052;-62
2024/01/20 12:12:25;;;;;;;27.42;20.20;;;;;;;-0.81;72.99;101712.47;10405428;28;20393;-63
2024/01/20 12:17:27;;;;;;;28.20;20.70;;;;;;;-0.78;72.94;101722.91;10439791;28;20067;-64
2024/01/20 12:22:30;;;;;;;29.15;19.48;;;;;;;-0.73;73.71;101704.53;10433696;28;20136;-63
2024/01/20 12:27:31;;;;;;;37.70;27.60;;;;;;;-0.72;73.21;101694.06;10441834;28;20688;-62
2024/01/20 12:32:33;;;;;;;36.63;25.23;;;;;;;-0.82;72.88;101687.19;10416330;28;20105;-64
2024/01/20 12:37:34;;;;;;;34.95;23.75;;;;;;;-0.80;73.70;101685.41;10416342;28;20055;-62
2024/01/20 12:42:37;;;;;;;62.60;44.08;;;;;;;-0.75;73.34;101662.72;10444656;28;20123;-64
2024/01/20 12:47:41;;;;;;;35.13;24.23;;;;;;;-0.14;70.64;101668.06;10422298;28;20568;-64
2024/01/20 12:52:45;;;;;;;37.90;26.70;;;;;;;0.18;69.04;101677.22;10418923;28;20111;-63
2024/01/20 12:57:46;;;;;;;29.27;20.60;;;;;;;0.73;67.21;101664.16;10426790;28;20683;-63
2024/01/20 13:02:48;;;;;;;25.88;19.13;;;;;;;0.90;65.11;101656.84;10431501;28;20675;-63
2024/01/20 13:07:49;;;;;;;26.83;18.08;;;;;;;1.85;62.61;101658.53;10430300;28;20068;-59
2024/01/20 13:12:52;;;;;;;27.17;19.10;;;;;;;3.18;58.20;101646.50;10422891;28;20110;-63
2024/01/20 13:17:53;;;;;;;28.80;21.25;;;;;;;2.80;57.56;101645.75;10399366;28;20048;-62
2024/01/20 13:22:56;;;;;;;33.72;23.55;;;;;;;2.60;58.56;101643.63;10425910;28;20056;-64
2024/01/20 13:27:57;;;;;;;27.35;21.23;;;;;;;2.06;59.80;101641.44;10442492;28;20375;-64
2024/01/20 13:32:59;;;;;;;21.92;17.27;;;;;;;1.48;62.01;101638.31;10435348;28;20064;-62
2024/01/20 13:38:01;;;;;;;23.15;18.17;;;;;;;1.44;62.29;101621.72;10414862;28;20057;-61
2024/01/20 13:43:03;;;;;;;23.98;18.25;;;;;;;1.94;61.65;101648.69;10425076;28;20068;-62
2024/01/20 13:48:06;;;;;;;25.35;18.63;;;;;;;1.25;62.96;101650.13;10414829;28;20616;-62
2024/01/20 13:53:08;;;;;;;27.13;19.13;;;;;;;0.70;64.94;101658.06;10426430;28;20218;-64
2024/01/20 13:58:10;;;;;;;23.58;18.88;;;;;;;0.26;66.87;101654.44;10444896;28;20274;-64
2024/01/20 14:03:11;;;;;;;28.02;21.02;;;;;;;0.09;67.40;101622.38;10440144;28;20055;-63
2024/01/20 14:08:13;;;;;;;24.85;18.77;;;;;;;0.30;68.00;101655.22;10438426;28;20060;-63
2024/01/20 14:13:15;;;;;;;24.45;18.77;;;;;;;0.43;67.73;101656.78;10441136;28;20409;-64
2024/01/20 14:18:16;;;;;;;26.63;19.38;;;;;;;0.57;68.26;101660.94;10413955;28;20056;-64
2024/01/20 14:23:22;;;;;;;24.45;18.00;;;;;;;0.77;67.24;101660.63;10418341;28;20141;-63
2024/01/20 14:28:23;;;;;;;27.23;21.50;;;;;;;0.87;65.88;101656.91;10418202;28;20051;-63
2024/01/20 14:33:25;;;;;;;26.33;19.33;;;;;;;1.06;66.01;101658.31;10434179;28;20056;-62
2024/01/20 14:38:27;;;;;;;26.38;19.95;;;;;;;1.01;66.50;101662.78;10433841;28;20048;-63
2024/01/20 14:43:29;;;;;;;23.63;19.52;;;;;;;0.65;66.13;101654.69;10422314;28;20049;-64
2024/01/20 14:48:30;;;;;;;27.23;19.58;;;;;;;0.51;67.10;101672.38;10434100;28;20049;-62
2024/01/20 14:53:33;;;;;;;28.20;20.77;;;;;;;0.31;68.78;101670.94;10438929;28;20098;-61
2024/01/20 14:58:35;;;;;;;27.38;20.50;;;;;;;0.24;68.18;101681.53;10439133;28;20056;-63
2024/01/20 15:03:36;;;;;;;26.20;20.27;;;;;;;0.17;68.50;101672.91;10436673;28;20045;-63
2024/01/20 15:08:38;;;;;;;29.17;23.42;;;;;;;-0.08;68.76;101670.63;10415491;28;20113;-63
2024/01/20 15:13:40;;;;;;;27.92;20.23;;;;;;;-0.16;69.57;101659.41;10428325;28;20658;-64
2024/01/20 15:18:44;;;;;;;32.50;22.65;;;;;;;-0.10;70.02;101672.41;10417775;28;20072;-62
2024/01/20 15:23:46;;;;;;;32.15;23.88;;;;;;;-0.03;69.97;101674.06;10428557;28;20056;-62
2024/01/20 15:28:48;;;;;;;27.63;21.83;;;;;;;-0.14;69.63;101665.47;10410029;28;20521;-61
2024/01/20 15:33:52;;;;;;;29.27;22.48;;;;;;;-0.16;70.22;101677.72;10432649;28;20451;-62
2024/01/20 15:38:55;;;;;;;28.88;22.35;;;;;;;-0.19;70.71;101677.75;10432155;28;20041;-61
2024/01/20 15:43:59;;;;;;;34.22;27.02;;;;;;;-0.37;71.49;101671.88;10420313;28;20197;-63
2024/01/20 15:49:00;;;;;;;27.48;21.55;;;;;;;-0.25;71.40;101670.00;10424391;28;20538;-64
2024/01/20 15:54:02;;;;;;;30.80;23.48;;;;;;;-0.30;70.50;101677.00;10417761;28;20751;-64
2024/01/20 15:59:04;;;;;;;31.60;21.65;;;;;;;-0.28;71.10;101676.13;10436399;28;20053;-62
2024/01/20 16:04:07;;;;;;;38.88;32.50;;;;;;;-0.57;71.57;101669.50;10430752;28;20114;-62
2024/01/20 16:09:09;;;;;;;37.55;30.02;;;;;;;-0.54;71.39;101686.91;10419559;28;20144;-61
2024/01/20 16:14:11;;;;;;;32.47;24.08;;;;;;;-0.63;71.02;101692.22;10415333;28;20063;-63
2024/01/20 16:19:12;;;;;;;32.17;23.02;;;;;;;-0.80;71.92;101674.09;10441220;28;20049;-63
2024/01/20 16:24:14;;;;;;;41.35;27.48;;;;;;;-0.79;72.50;101674.09;10435602;28;20048;-62
2024/01/20 16:29:16;;;;;;;45.15;35.15;;;;;;;-0.95;72.46;101680.34;10428952;28;20052;-65
2024/01/20 16:34:18;;;;;;;69.70;52.47;;;;;;;-1.05;72.99;101668.25;10424933;28;20065;-62
2024/01/20 16:39:19;;;;;;;37.17;26.25;;;;;;;-1.10;73.82;101669.16;10418455;28;20047;-61
2024/01/20 16:44:21;;;;;;;45.22;36.63;;;;;;;-1.14;74.28;101670.09;10443048;28;20068;-63
2024/01/20 16:49:24;;;;;;;37.05;26.00;;;;;;;-1.11;73.95;101663.94;10438171;28;20257;-61
2024/01/20 16:54:29;;;;;;;36.35;24.30;;;;;;;-1.16;74.36;101677.06;10442900;28;20049;-61
2024/01/20 16:59:33;;;;;;;36.38;24.55;;;;;;;-1.29;74.95;101675.44;10436503;28;20139;-61
2024/01/20 17:04:35;;;;;;;33.20;22.95;;;;;;;-1.20;75.00;101680.59;10410812;28;20083;-63
2024/01/20 17:09:39;;;;;;;37.55;27.20;;;;;;;-1.19;75.09;101674.47;10414567;28;20062;-64
2024/01/20 17:14:41;;;;;;;38.20;28.65;;;;;;;-1.05;75.30;101673.47;10437204;28;20079;-62
2024/01/20 17:19:44;;;;;;;38.38;26.60;;;;;;;-0.94;75.73;101672.50;10420469;28;20048;-63
2024/01/20 17:24:46;;;;;;;36.33;25.45;;;;;;;-0.79;74.99;101671.47;10438016;28;20056;-62
2024/01/20 17:29:48;;;;;;;40.03;27.50;;;;;;;-0.68;74.64;101665.25;10405085;28;20052;-61
2024/01/20 17:34:49;;;;;;;42.90;26.90;;;;;;;-0.61;73.62;101669.56;10413052;28;20132;-63
2024/01/20 17:39:51;;;;;;;36.33;24.02;;;;;;;-0.61;74.03;101659.09;10393801;28;20057;-62
2024/01/20 17:44:52;;;;;;;36.45;24.83;;;;;;;-0.45;73.23;101667.59;10420805;28;20503;-61
2024/01/20 17:49:55;;;;;;;35.30;26.52;;;;;;;-0.44;73.18;101664.97;10422448;28;20132;-62
2024/01/20 17:54:58;;;;;;;40.65;28.55;;;;;;;-0.52;73.26;101672.06;10434106;28;20056;-62
2024/01/20 17:59:59;;;;;;;43.28;30.30;;;;;;;-0.56;73.34;101652.91;10440995;28;20051;-61
2024/01/20 18:05:00;;;;;;;36.60;27.85;;;;;;;-0.51;73.30;101660.72;10403144;28;20780;-61
2024/01/20 18:10:02;;;;;;;38.00;27.48;;;;;;;-0.58;73.30;101635.50;10440502;28;20044;-62
2024/01/20 18:15:06;;;;;;;38.58;27.95;;;;;;;-0.37;72.76;101664.00;10420871;28;20059;-62
2024/01/20 18:20:08;;;;;;;39.70;27.45;;;;;;;-0.42;71.85;101664.94;10423574;28;20056;-62
2024/01/20 18:25:10;;;;;;;37.50;28.02;;;;;;;-0.32;72.72;101677.03;10436018;28;20072;-62
2024/01/20 18:30:12;;;;;;;40.13;27.98;;;;;;;-0.29;73.05;101670.91;10408661;28;20056;-62
2024/01/20 18:35:13;;;;;;;40.25;26.80;;;;;;;-0.30;73.25;101661.31;10419586;28;20052;-62
2024/01/20 18:40:16;;;;;;;42.53;27.95;;;;;;;-0.35;73.05;101656.13;10384904;28;20056;-62
2024/01/20 18:45:18;;;;;;;37.28;27.33;;;;;;;-0.25;73.99;101672.59;10432295;28;20422;-62
2024/01/20 18:50:21;;;;;;;41.92;27.45;;;;;;;-0.27;73.39;101676.97;10420624;28;20132;-62
2024/01/20 18:55:23;;;;;;;40.58;27.50;;;;;;;-0.22;73.68;101678.66;10401709;28;20664;-62
2024/01/20 19:00:25;;;;;;;41.95;26.15;;;;;;;-0.25;74.78;101677.84;10420505;28;20053;-62
2024/01/20 19:05:27;;;;;;;45.30;28.92;;;;;;;-0.39;74.25;101671.03;10400465;28;20049;-66
2024/01/20 19:10:30;;;;;;;48.40;29.42;;;;;;;-0.32;74.79;101677.03;10434725;28;20051;-63
2024/01/20 19:15:32;;;;;;;46.58;28.65;;;;;;;-0.29;74.33;101681.38;10434457;28;20695;-63
2024/01/20 19:20:38;;;;;;;43.92;29.67;;;;;;;-0.25;74.75;101672.59;10432965;28;20056;-64
2024/01/20 19:25:39;;;;;;;46.90;29.48;;;;;;;-0.18;74.38;101676.88;10431532;28;20059;-62
2024/01/20 19:30:40;;;;;;;44.58;31.98;;;;;;;-0.16;74.25;101672.47;10433670;28;20131;-64
2024/01/20 19:35:42;;;;;;;48.22;30.88;;;;;;;-0.19;74.49;101669.91;10433986;28;20099;-62
2024/01/20 19:40:43;;;;;;;46.35;29.98;;;;;;;-0.22;74.64;101667.34;10430907;28;20056;-65
2024/01/20 19:45:45;;;;;;;49.75;31.35;;;;;;;-0.28;74.94;101677.88;10385942;28;20156;-64
2024/01/20 19:50:47;;;;;;;46.80;30.48;;;;;;;-0.34;75.84;101670.13;10419898;28;20049;-62
2024/01/20 19:55:49;;;;;;;47.78;30.08;;;;;;;-0.29;75.73;101660.44;10434396;28;20138;-64
2024/01/20 20:00:50;;;;;;;44.53;28.92;;;;;;;-0.39;76.02;101642.25;10444605;28;20137;-63
2024/01/20 20:05:54;;;;;;;45.60;28.50;;;;;;;-0.49;76.30;101642.38;10441054;28;20051;-63
2024/01/20 20:10:56;;;;;;;47.75;29.92;;;;;;;-0.52;76.82;101638.06;10445484;28;20105;-63
2024/01/20 20:15:58;;;;;;;47.20;29.85;;;;;;;-0.54;76.86;101634.59;10444071;28;20044;-62
2024/01/20 20:21:00;;;;;;;44.88;29.33;;;;;;;-0.69;77.94;101619.06;10443927;28;20082;-62
2024/01/20 20:26:02;;;;;;;42.60;28.08;;;;;;;-0.53;77.78;101636.31;10416871;28;21033;-62
2024/01/20 20:31:06;;;;;;;44.08;28.45;;;;;;;-0.56;77.36;101618.03;10439455;28;20079;-62
2024/01/20 20:36:11;;;;;;;39.58;26.50;;;;;;;-0.43;76.92;101627.47;10419758;28;20142;-63
2024/01/20 20:41:14;;;;;;;45.17;28.90;;;;;;;-0.47;76.81;101619.69;10445541;28;20051;-62
2024/01/20 20:46:15;;;;;;;47.28;28.42;;;;;;;-0.55;76.97;101614.53;10440658;28;20120;-62
2024/01/20 20:51:19;;;;;;;45.83;28.02;;;;;;;-0.51;76.93;101608.41;10443141;28;20126;-63
2024/01/20 20:56:23;;;;;;;47.75;28.55;;;;;;;-0.33;76.88;101615.13;10409546;28;20053;-63
2024/01/20 21:01:24;;;;;;;50.90;30.75;;;;;;;-0.43;76.57;101598.69;10422811;28;20056;-62
2024/01/20 21:06:26;;;;;;;51.58;30.02;;;;;;;-0.28;76.34;101604.59;10428005;28;20060;-62
2024/01/20 21:11:28;;;;;;;47.15;29.95;;;;;;;-0.24;76.30;101598.41;10409721;28;20906;-62
2024/01/20 21:16:30;;;;;;;41.92;29.17;;;;;;;-0.27;75.91;101582.75;10439832;28;20132;-63
2024/01/20 21:21:33;;;;;;;49.83;29.75;;;;;;;-0.32;75.82;101581.97;10441661;28;20132;-63
2024/01/20 21:26:35;;;;;;;45.42;30.33;;;;;;;-0.24;75.64;101590.56;10426598;28;20048;-64
2024/01/20 21:31:36;;;;;;;39.15;27.00;;;;;;;-0.36;75.69;101560.25;10419216;28;20049;-63
2024/01/20 21:36:38;;;;;;;45.78;28.40;;;;;;;-0.26;75.34;101592.34;10439369;28;20122;-68
2024/01/20 21:41:40;;;;;;;42.53;27.52;;;;;;;-0.33;75.34;101578.50;10410636;28;20481;-62
2024/01/20 21:46:45;;;;;;;46.05;28.08;;;;;;;-0.27;75.24;101586.28;10414362;28;20414;-64
2024/01/20 21:51:51;;;;;;;47.70;28.23;;;;;;;-0.26;75.60;101581.88;10420324;28;20054;-62
2024/01/20 21:56:56;;;;;;;46.43;27.67;;;;;;;-0.32;75.32;101577.59;10439027;28;20151;-62
2024/01/20 22:01:57;;;;;;;47.63;30.17;;;;;;;-0.32;75.08;101564.50;10438151;28;20063;-63
2024/01/20 22:06:59;;;;;;;43.63;28.80;;;;;;;-0.44;75.50;101573.41;10438659;28;20095;-63
2024/01/20 22:12:01;;;;;;;37.10;25.45;;;;;;;-0.37;75.22;101561.13;10417269;28;20711;-64
2024/01/20 22:17:03;;;;;;;40.55;28.00;;;;;;;-0.37;74.63;101564.59;10436093;28;20113;-63
2024/01/20 22:22:04;;;;;;;39.13;27.52;;;;;;;-0.38;74.12;101562.84;10418388;28;20052;-63
2024/01/20 22:27:08;;;;;;;39.85;25.98;;;;;;;-0.43;74.99;101569.91;10437303;28;20143;-62
2024/01/20 22:32:10;;;;;;;41.13;26.67;;;;;;;-0.40;74.25;101569.00;10417758;28;20048;-63
2024/01/20 22:37:12;;;;;;;41.17;27.65;;;;;;;-0.43;74.25;101567.28;10419416;28;20102;-63